Time;durP1;ratioP1;P1;durP2;ratioP2;P2;SDS_P1;SDS_P2;PMS_P1;PMS_P2;Temp;Humidity;BMP_temperature;BMP_pressure;BME280_temperature;BME280_humidity;BME280_pressure;Samples;Min_cycle;Max_cycle;Signal;HPM_P1;HPM_P2
2024/04/10 00:01:42;;;;;;;6.65;0.90;;;10.10;99.90;;;;;;5433081;26;20039;-80
2024/04/10 00:04:09;;;;;;;5.80;0.82;;;10.00;99.90;;;;;;5416190;26;20035;-81
2024/04/10 00:06:36;;;;;;;5.53;0.90;;;10.00;99.90;;;;;;5415399;26;20040;-81
2024/04/10 00:09:03;;;;;;;8.18;0.80;;;10.00;99.90;;;;;;5413176;26;20031;-83
2024/04/10 00:11:30;;;;;;;9.57;1.20;;;10.00;99.90;;;;;;5413560;26;20027;-80
2024/04/10 00:13:57;;;;;;;7.78;0.77;;;10.00;99.90;;;;;;5436280;26;20039;-82
2024/04/10 00:16:24;;;;;;;9.70;1.02;;;10.00;99.90;;;;;;5416580;26;20031;-80
2024/04/10 00:18:51;;;;;;;8.93;1.05;;;9.90;99.90;;;;;;5416535;26;20488;-82
2024/04/10 00:21:17;;;;;;;7.60;1.13;;;9.90;99.90;;;;;;5418973;26;20038;-82
2024/04/10 00:23:45;;;;;;;10.77;1.58;;;9.90;99.90;;;;;;5431829;26;20027;-80
2024/04/10 00:26:12;;;;;;;7.60;1.10;;;10.00;99.90;;;;;;5415936;26;20672;-81
2024/04/10 00:28:39;;;;;;;11.18;1.15;;;9.90;99.90;;;;;;5416244;26;20032;-80
2024/04/10 00:31:07;;;;;;;5.20;0.75;;;9.90;99.90;;;;;;5416154;26;20032;-80
2024/04/10 00:33:38;;;;;;;5.22;1.00;;;9.90;99.90;;;;;;5420682;26;20027;-80
2024/04/10 00:36:05;;;;;;;7.30;0.88;;;9.90;99.90;;;;;;5446967;26;20026;-80
2024/04/10 00:38:32;;;;;;;6.95;0.98;;;9.90;99.90;;;;;;5451800;26;20026;-80
2024/04/10 00:41:04;;;;;;;7.43;1.15;;;9.90;99.90;;;;;;5446611;26;20034;-81
2024/04/10 00:43:33;;;;;;;7.70;0.80;;;9.90;99.90;;;;;;5446911;26;20038;-80
2024/04/10 00:46:10;;;;;;;6.22;0.75;;;9.90;99.90;;;;;;5451298;26;20038;-81
2024/04/10 00:48:38;;;;;;;6.70;1.45;;;9.90;99.90;;;;;;5416385;26;20486;-81
2024/04/10 00:51:13;;;;;;;4.72;0.85;;;10.00;99.90;;;;;;5416113;26;20031;-81
2024/04/10 00:53:40;;;;;;;6.43;0.90;;;9.90;99.90;;;;;;5435401;26;20043;-81
2024/04/10 00:56:10;;;;;;;6.30;0.77;;;9.90;99.90;;;;;;5451762;26;20030;-80
2024/04/10 00:58:38;;;;;;;6.75;0.65;;;9.80;99.90;;;;;;5451440;26;20027;-81
2024/04/10 01:01:07;;;;;;;5.57;0.95;;;9.90;99.90;;;;;;5424177;26;20473;-82
2024/04/10 01:03:36;;;;;;;5.80;1.05;;;9.90;99.90;;;;;;5415485;26;20040;-80
2024/04/10 01:06:08;;;;;;;9.57;1.27;;;10.00;99.90;;;;;;5443966;26;20046;-82
2024/04/10 01:08:38;;;;;;;11.88;1.33;;;9.90;99.90;;;;;;5451715;26;20035;-80
2024/04/10 01:11:06;;;;;;;9.68;0.95;;;9.80;99.90;;;;;;5423080;26;20031;-80
2024/04/10 01:13:34;;;;;;;5.40;0.80;;;9.80;99.90;;;;;;5431540;26;20027;-81
2024/04/10 01:16:01;;;;;;;5.88;0.85;;;9.80;99.90;;;;;;5435911;26;20042;-81
2024/04/10 01:18:28;;;;;;;8.07;0.80;;;9.80;99.90;;;;;;5441525;26;20054;-82
2024/04/10 01:20:54;;;;;;;7.10;1.20;;;9.80;99.90;;;;;;5418991;26;20038;-82
2024/04/10 01:23:22;;;;;;;4.03;1.10;;;9.90;99.90;;;;;;5444029;26;20493;-81
2024/04/10 01:25:49;;;;;;;8.82;1.17;;;9.70;99.90;;;;;;5415228;26;20035;-80
2024/04/10 01:28:16;;;;;;;6.45;0.80;;;9.70;99.90;;;;;;5415417;26;20032;-81
2024/04/10 01:30:42;;;;;;;7.68;0.85;;;9.70;99.90;;;;;;5435462;26;20106;-81
2024/04/10 01:33:09;;;;;;;9.35;1.05;;;9.80;99.90;;;;;;5437937;26;20032;-80
2024/04/10 01:35:36;;;;;;;6.97;1.00;;;9.70;99.90;;;;;;5415092;26;20793;-81
2024/04/10 01:38:03;;;;;;;4.53;0.77;;;9.70;99.90;;;;;;5418572;26;20023;-80
2024/04/10 01:40:31;;;;;;;2.33;0.40;;;9.60;99.90;;;;;;5451252;26;20050;-80
2024/04/10 01:42:58;;;;;;;6.15;0.75;;;9.60;99.90;;;;;;5440743;26;20114;-81
2024/04/10 01:45:26;;;;;;;2.75;0.55;;;9.60;99.90;;;;;;5423888;26;20036;-82
2024/04/10 01:47:53;;;;;;;2.42;0.47;;;9.60;99.90;;;;;;5414788;26;20036;-80
2024/04/10 01:50:20;;;;;;;4.90;0.73;;;9.60;99.90;;;;;;5414218;26;20027;-81
2024/04/10 01:52:47;;;;;;;1.73;0.50;;;9.50;99.90;;;;;;5417054;26;20035;-80
2024/04/10 01:55:14;;;;;;;4.55;0.52;;;9.60;99.90;;;;;;5419456;26;20496;-80
2024/04/10 01:57:40;;;;;;;3.38;0.30;;;9.50;99.90;;;;;;5454140;26;20388;-80
2024/04/10 02:00:09;;;;;;;1.90;0.40;;;9.50;99.90;;;;;;5444334;26;20031;-83
2024/04/10 02:02:36;;;;;;;1.48;0.20;;;9.50;99.90;;;;;;5418016;26;20052;-80
2024/04/10 02:05:03;;;;;;;0.73;0.20;;;9.40;99.90;;;;;;5428464;26;20038;-82
2024/04/10 02:07:30;;;;;;;1.63;0.30;;;9.50;99.90;;;;;;5454519;26;20027;-80
2024/04/10 02:09:57;;;;;;;5.05;0.40;;;9.50;99.90;;;;;;5454172;26;20030;-80
2024/04/10 02:12:24;;;;;;;0.75;0.20;;;9.40;99.90;;;;;;5430425;26;20035;-80
2024/04/10 02:14:51;;;;;;;2.67;0.50;;;9.50;99.90;;;;;;5419727;26;20047;-80
2024/04/10 02:17:17;;;;;;;2.42;0.45;;;9.60;99.90;;;;;;5418548;26;20027;-80
2024/04/10 02:19:44;;;;;;;2.80;0.40;;;9.40;99.90;;;;;;5422048;26;20039;-80
2024/04/10 02:22:11;;;;;;;0.77;0.20;;;9.40;99.90;;;;;;5454280;26;20030;-80
2024/04/10 02:24:38;;;;;;;1.25;0.30;;;9.40;99.90;;;;;;5449785;26;20035;-81
2024/04/10 02:27:05;;;;;;;2.17;0.20;;;9.40;99.90;;;;;;5453874;26;20884;-80
2024/04/10 02:29:31;;;;;;;2.40;0.30;;;9.40;99.90;;;;;;5451491;26;20039;-81
2024/04/10 02:31:59;;;;;;;1.35;0.20;;;9.40;99.90;;;;;;5446699;26;20024;-80
2024/04/10 02:34:26;;;;;;;1.88;0.30;;;9.30;99.90;;;;;;5417574;26;20027;-81
2024/04/10 02:36:53;;;;;;;2.47;0.50;;;9.50;99.90;;;;;;5417685;26;20036;-82
2024/04/10 02:39:20;;;;;;;0.80;0.25;;;9.30;99.90;;;;;;5419067;26;20908;-81
2024/04/10 02:41:48;;;;;;;2.63;0.50;;;9.30;99.90;;;;;;5418205;26;20046;-80
2024/04/10 02:44:15;;;;;;;4.07;0.20;;;9.30;99.90;;;;;;5417687;26;20031;-82
2024/04/10 02:46:42;;;;;;;2.15;0.25;;;9.30;99.90;;;;;;5417750;26;20027;-80
2024/04/10 02:49:09;;;;;;;2.70;0.32;;;9.30;99.90;;;;;;5417942;26;20374;-80
2024/04/10 02:51:36;;;;;;;1.55;0.32;;;9.30;99.90;;;;;;5418241;26;20023;-80
2024/04/10 02:54:03;;;;;;;2.95;0.28;;;9.40;99.90;;;;;;5417875;26;20027;-79
2024/04/10 02:56:30;;;;;;;1.85;0.30;;;9.40;99.90;;;;;;5443904;26;20821;-81
2024/04/10 02:58:57;;;;;;;5.60;0.47;;;9.40;99.90;;;;;;5453633;26;20023;-80
2024/04/10 03:01:24;;;;;;;5.45;0.50;;;9.30;99.90;;;;;;5453746;26;20034;-80
2024/04/10 03:03:50;;;;;;;1.08;0.20;;;9.30;99.90;;;;;;5437900;26;20032;-80
2024/04/10 03:06:17;;;;;;;4.85;0.60;;;9.40;99.90;;;;;;5417898;26;20032;-82
2024/04/10 03:08:44;;;;;;;3.97;1.15;;;9.60;99.90;;;;;;5417792;26;20043;-80
2024/04/10 03:11:13;;;;;;;3.72;1.17;;;9.40;99.90;;;;;;5417599;26;20035;-82
2024/04/10 03:13:40;;;;;;;2.83;0.50;;;9.40;99.90;;;;;;5417569;26;20027;-80
2024/04/10 03:16:07;;;;;;;4.40;0.70;;;9.40;99.90;;;;;;5417166;26;20607;-80
2024/04/10 03:18:34;;;;;;;2.67;0.60;;;9.40;99.90;;;;;;5427012;26;20806;-82
2024/04/10 03:21:01;;;;;;;3.28;0.52;;;9.40;99.90;;;;;;5417349;26;20040;-82
2024/04/10 03:23:28;;;;;;;2.67;0.75;;;9.40;99.90;;;;;;5416894;26;20043;-80
2024/04/10 03:26:05;;;;;;;5.60;0.60;;;9.40;99.90;;;;;;5421859;26;20043;-81
2024/04/10 03:28:35;;;;;;;6.30;0.90;;;9.40;99.90;;;;;;5417503;26;20055;-80
2024/04/10 03:31:06;;;;;;;5.70;0.68;;;9.40;99.90;;;;;;5417045;26;20062;-80
2024/04/10 03:33:34;;;;;;;7.45;0.80;;;9.40;99.90;;;;;;5416727;26;20033;-80
2024/04/10 03:36:01;;;;;;;4.93;0.70;;;9.30;99.90;;;;;;5441231;26;20036;-81
2024/04/10 03:38:28;;;;;;;5.60;0.93;;;9.40;99.90;;;;;;5437083;26;20885;-81
2024/04/10 03:40:55;;;;;;;5.55;0.90;;;9.30;99.90;;;;;;5417292;26;20028;-81
2024/04/10 03:43:23;;;;;;;5.28;0.70;;;9.40;99.90;;;;;;5417049;26;21061;-80
2024/04/10 03:45:51;;;;;;;6.82;0.70;;;9.30;99.90;;;;;;5417032;26;20031;-81
2024/04/10 03:48:20;;;;;;;9.65;1.05;;;9.30;99.90;;;;;;5427547;26;20055;-80
2024/04/10 03:50:46;;;;;;;4.40;1.08;;;9.40;99.90;;;;;;5433574;26;20039;-81
2024/04/10 03:53:13;;;;;;;6.22;1.08;;;9.30;99.90;;;;;;5428909;26;20031;-80
2024/04/10 03:55:40;;;;;;;8.63;1.10;;;9.30;99.90;;;;;;5417022;26;20031;-81
2024/04/10 03:58:07;;;;;;;8.18;1.20;;;9.30;99.90;;;;;;5414913;26;20035;-81
2024/04/10 04:00:34;;;;;;;8.20;1.27;;;9.30;99.90;;;;;;5413446;26;20057;-79
2024/04/10 04:03:01;;;;;;;6.80;1.42;;;9.30;99.90;;;;;;5416548;26;20043;-81
2024/04/10 04:05:29;;;;;;;7.55;1.17;;;9.40;99.90;;;;;;5416314;26;20028;-81
2024/04/10 04:07:56;;;;;;;9.30;1.48;;;9.40;99.90;;;;;;5439441;26;20023;-79
2024/04/10 04:10:23;;;;;;;7.05;1.17;;;9.30;99.90;;;;;;5450121;26;20035;-80
2024/04/10 04:12:49;;;;;;;11.55;1.25;;;9.40;99.90;;;;;;5451588;26;20031;-81
2024/04/10 04:15:16;;;;;;;6.47;0.98;;;9.30;99.90;;;;;;5422988;26;20035;-80
2024/04/10 04:17:43;;;;;;;10.00;1.42;;;9.30;99.90;;;;;;5452039;26;20022;-80
2024/04/10 04:20:11;;;;;;;7.95;1.50;;;9.30;99.90;;;;;;5418956;26;20035;-81
2024/04/10 04:22:38;;;;;;;6.43;1.48;;;9.30;99.90;;;;;;5416592;26;20027;-80
2024/04/10 04:25:05;;;;;;;10.20;1.67;;;9.20;99.90;;;;;;5440740;26;20042;-81
2024/04/10 04:27:32;;;;;;;9.32;1.13;;;9.20;99.90;;;;;;5445874;26;20058;-80
2024/04/10 04:29:59;;;;;;;8.90;2.00;;;9.20;99.90;;;;;;5452248;26;20022;-81
2024/04/10 04:32:26;;;;;;;9.23;1.50;;;9.10;99.90;;;;;;5440508;26;20394;-81
2024/04/10 04:34:54;;;;;;;13.18;1.65;;;9.10;99.90;;;;;;5415577;26;20039;-80
2024/04/10 04:37:21;;;;;;;7.35;1.15;;;9.10;99.90;;;;;;5416128;26;20035;-81
2024/04/10 04:39:48;;;;;;;8.30;1.35;;;9.10;99.90;;;;;;5414995;26;20024;-81
2024/04/10 04:42:15;;;;;;;9.05;1.30;;;9.10;99.90;;;;;;5415810;26;20027;-81
2024/04/10 04:44:42;;;;;;;13.02;1.67;;;9.10;99.90;;;;;;5414643;26;20055;-80
2024/04/10 04:47:09;;;;;;;5.90;0.90;;;9.10;99.90;;;;;;5419472;26;20039;-79
2024/04/10 04:49:36;;;;;;;9.18;2.00;;;9.10;99.90;;;;;;5415236;26;20035;-80
2024/04/10 04:52:04;;;;;;;15.80;2.50;;;9.00;99.90;;;;;;5416187;26;20035;-83
2024/04/10 04:54:31;;;;;;;11.82;1.45;;;9.10;99.90;;;;;;5416005;26;20032;-80
2024/04/10 04:56:58;;;;;;;10.52;1.83;;;9.10;99.90;;;;;;5415661;26;20031;-81
2024/04/10 04:59:25;;;;;;;13.05;1.95;;;9.10;99.90;;;;;;5415957;26;20024;-80
2024/04/10 05:01:53;;;;;;;9.35;1.75;;;9.10;99.90;;;;;;5415746;26;20035;-80
2024/04/10 05:07:05;;;;;;;11.95;2.00;;;9.10;99.90;;;;;;5429982;26;20111;-84
2024/04/10 05:09:32;;;;;;;11.88;2.17;;;9.10;99.90;;;;;;5431162;26;20031;-82
2024/04/10 05:11:59;;;;;;;12.85;1.83;;;9.10;99.90;;;;;;5423515;26;20038;-83
2024/04/10 05:14:26;;;;;;;8.07;1.90;;;9.10;99.90;;;;;;5415502;26;20056;-82
2024/04/10 05:16:53;;;;;;;11.73;2.28;;;9.10;99.90;;;;;;5420696;26;20404;-83
2024/04/10 05:19:19;;;;;;;7.97;2.03;;;9.00;99.90;;;;;;5421500;26;20111;-83
2024/04/10 05:21:46;;;;;;;11.20;1.88;;;9.10;99.90;;;;;;5428827;26;20395;-83
2024/04/10 05:24:13;;;;;;;12.23;1.75;;;9.00;99.90;;;;;;5431922;26;20059;-82
2024/04/10 05:26:40;;;;;;;9.32;1.50;;;9.10;99.90;;;;;;5432494;26;20350;-82
2024/04/10 05:29:07;;;;;;;12.02;2.05;;;9.10;99.90;;;;;;5428114;26;19998;-82
2024/04/10 05:31:36;;;;;;;9.50;1.80;;;9.20;99.90;;;;;;5425366;26;20843;-81
2024/04/10 05:34:03;;;;;;;13.32;2.28;;;9.10;99.90;;;;;;5428394;26;20015;-83
2024/04/10 05:36:30;;;;;;;6.63;1.80;;;9.10;99.90;;;;;;5426460;26;20007;-83
2024/04/10 05:39:00;;;;;;;10.50;1.60;;;9.10;99.90;;;;;;5430109;26;20035;-82
2024/04/10 05:41:27;;;;;;;10.75;2.60;;;9.10;99.90;;;;;;5434440;26;20007;-84
2024/04/10 05:43:53;;;;;;;14.40;2.00;;;9.10;99.90;;;;;;5429512;26;21167;-82
2024/04/10 05:46:20;;;;;;;14.80;2.75;;;9.10;99.90;;;;;;5424066;26;20007;-83
2024/04/10 05:48:47;;;;;;;12.95;2.50;;;9.00;99.90;;;;;;5429938;26;20009;-81
2024/04/10 05:51:16;;;;;;;11.40;2.20;;;9.10;99.90;;;;;;5420792;26;19999;-81
2024/04/10 05:53:42;;;;;;;9.65;2.55;;;9.10;99.90;;;;;;5431259;26;20003;-79
2024/04/10 05:56:09;;;;;;;10.43;2.00;;;9.10;99.90;;;;;;5414486;26;20038;-80
2024/04/10 05:58:36;;;;;;;14.70;2.13;;;9.60;99.90;;;;;;5444030;26;19999;-79
2024/04/10 06:01:08;;;;;;;11.13;2.25;;;9.10;99.90;;;;;;5429446;26;20026;-81
2024/04/10 06:03:35;;;;;;;14.32;1.95;;;9.20;99.90;;;;;;5426341;26;20445;-81
2024/04/10 06:06:12;;;;;;;12.68;2.58;;;9.20;99.90;;;;;;5414123;26;20017;-83
2024/04/10 06:08:48;;;;;;;12.18;2.20;;;9.20;99.90;;;;;;5411843;26;20583;-81
2024/04/10 06:11:15;;;;;;;14.13;2.40;;;9.20;99.90;;;;;;5436732;26;20009;-81
2024/04/10 06:13:46;;;;;;;10.68;2.60;;;9.20;99.90;;;;;;5427055;26;20013;-82
2024/04/10 06:16:13;;;;;;;10.23;2.15;;;9.20;99.90;;;;;;5421948;26;20754;-83
2024/04/10 06:18:41;;;;;;;16.98;3.63;;;9.30;99.90;;;;;;5415560;26;20039;-82
2024/04/10 06:21:07;;;;;;;12.13;2.08;;;9.30;99.90;;;;;;5418933;26;20003;-82
2024/04/10 06:23:35;;;;;;;13.27;2.22;;;9.30;99.90;;;;;;5436479;26;20789;-82
2024/04/10 06:26:02;;;;;;;19.30;2.80;;;9.30;99.90;;;;;;5428675;26;20030;-84
2024/04/10 06:28:30;;;;;;;9.95;2.20;;;9.30;99.90;;;;;;5434622;26;20045;-83
2024/04/10 06:31:01;;;;;;;11.65;2.97;;;9.40;99.90;;;;;;5426814;26;20023;-81
2024/04/10 06:33:29;;;;;;;13.85;3.13;;;9.30;99.90;;;;;;5413319;26;20035;-81
2024/04/10 06:36:06;;;;;;;17.33;3.85;;;9.70;99.90;;;;;;5416864;26;20089;-83
2024/04/10 06:38:34;;;;;;;14.98;3.10;;;9.40;99.90;;;;;;5417547;26;20026;-82
2024/04/10 06:41:03;;;;;;;12.75;2.72;;;9.40;99.90;;;;;;5426729;26;20008;-83
2024/04/10 06:43:31;;;;;;;13.38;3.20;;;9.40;99.90;;;;;;5434939;26;20043;-82
2024/04/10 06:46:03;;;;;;;17.27;3.35;;;9.40;99.90;;;;;;5432042;26;20047;-83
2024/04/10 06:48:30;;;;;;;12.18;2.97;;;9.40;99.90;;;;;;5435742;26;20031;-83
2024/04/10 06:51:02;;;;;;;14.75;4.38;;;9.50;99.90;;;;;;5421944;26;20004;-84
2024/04/10 06:53:30;;;;;;;16.50;3.90;;;9.50;99.90;;;;;;5423780;26;20508;-83
2024/04/10 06:55:59;;;;;;;14.15;3.35;;;9.50;99.90;;;;;;5432728;26;20038;-81
2024/04/10 06:58:28;;;;;;;14.02;3.40;;;9.50;99.90;;;;;;5426530;26;19999;-82
2024/04/10 07:01:02;;;;;;;14.07;3.63;;;9.70;99.90;;;;;;5437131;26;20013;-84
2024/04/10 07:03:31;;;;;;;11.60;2.97;;;9.60;99.90;;;;;;5435691;26;20485;-82
2024/04/10 07:06:11;;;;;;;13.52;3.10;;;9.60;99.90;;;;;;5426290;26;20050;-82
2024/04/10 07:08:41;;;;;;;19.98;4.20;;;9.60;99.90;;;;;;5426238;26;20034;-80
2024/04/10 07:11:14;;;;;;;17.00;3.50;;;9.80;99.90;;;;;;5414741;26;20111;-83
2024/04/10 07:13:52;;;;;;;18.33;3.45;;;9.80;99.90;;;;;;5448843;26;19999;-82
2024/04/10 07:16:20;;;;;;;14.38;3.25;;;9.80;99.90;;;;;;5424987;26;19999;-82
2024/04/10 07:18:47;;;;;;;17.80;4.13;;;9.80;99.90;;;;;;5433360;26;20003;-81
2024/04/10 07:21:15;;;;;;;15.45;3.65;;;9.80;99.90;;;;;;5431964;26;20010;-86
2024/04/10 07:23:42;;;;;;;13.55;3.92;;;9.90;99.90;;;;;;5442841;26;20003;-81
2024/04/10 07:26:16;;;;;;;16.92;3.90;;;9.90;99.90;;;;;;5437551;26;20713;-81
2024/04/10 07:28:52;;;;;;;15.50;3.35;;;10.00;99.90;;;;;;5437749;26;20003;-80
2024/04/10 07:31:21;;;;;;;16.85;3.67;;;10.00;99.90;;;;;;5444076;26;19995;-80
2024/04/10 07:33:49;;;;;;;17.90;4.22;;;10.00;99.90;;;;;;5427473;26;20845;-81
2024/04/10 07:36:21;;;;;;;14.60;3.60;;;10.10;99.90;;;;;;5443233;26;19999;-80
2024/04/10 07:38:49;;;;;;;16.75;3.55;;;10.10;99.90;;;;;;5445979;26;19995;-81
2024/04/10 07:41:17;;;;;;;14.52;3.53;;;10.20;99.90;;;;;;5414302;26;20031;-81
2024/04/10 07:43:44;;;;;;;14.68;2.85;;;10.20;99.90;;;;;;5413204;26;20005;-81
2024/04/10 07:46:15;;;;;;;16.63;3.55;;;10.30;99.90;;;;;;5408847;26;19999;-81
2024/04/10 07:48:47;;;;;;;12.98;3.40;;;10.40;99.90;;;;;;5421110;26;19999;-79
2024/04/10 07:51:15;;;;;;;15.93;3.50;;;10.50;99.90;;;;;;5443619;26;20003;-80
2024/04/10 07:53:43;;;;;;;17.85;3.60;;;10.50;99.90;;;;;;5418704;26;20013;-81
2024/04/10 07:56:12;;;;;;;10.68;3.38;;;10.60;99.90;;;;;;5441848;26;20035;-82
2024/04/10 07:58:39;;;;;;;12.75;3.17;;;10.70;99.90;;;;;;5448825;26;20035;-82
2024/04/10 08:01:07;;;;;;;14.40;3.08;;;10.90;99.90;;;;;;5450266;26;20034;-81
2024/04/10 08:03:34;;;;;;;15.43;3.50;;;10.90;99.90;;;;;;5449438;26;20043;-83
2024/04/10 08:06:07;;;;;;;16.33;3.88;;;10.80;99.90;;;;;;5450588;26;20035;-82
2024/04/10 08:08:39;;;;;;;13.88;2.90;;;10.90;99.90;;;;;;5418774;26;20473;-82
2024/04/10 08:11:12;;;;;;;13.68;3.75;;;11.00;99.90;;;;;;5419564;26;20031;-83
2024/04/10 08:13:42;;;;;;;16.30;2.88;;;11.00;99.90;;;;;;5413118;26;20086;-82
2024/04/10 08:16:11;;;;;;;16.27;3.08;;;11.10;99.90;;;;;;5412704;26;20040;-82
2024/04/10 08:18:40;;;;;;;13.50;2.88;;;11.10;99.90;;;;;;5436586;26;20034;-82
2024/04/10 08:21:13;;;;;;;12.02;3.22;;;11.20;99.90;;;;;;5471344;26;20027;-82
2024/04/10 08:23:43;;;;;;;9.98;3.13;;;11.20;99.90;;;;;;5423238;26;20046;-80
2024/04/10 08:26:18;;;;;;;13.02;3.22;;;11.30;99.90;;;;;;5436394;26;20477;-82
2024/04/10 08:28:48;;;;;;;11.52;3.15;;;11.40;99.90;;;;;;5448286;26;20023;-82
2024/04/10 08:31:22;;;;;;;10.63;2.58;;;11.40;99.90;;;;;;5448517;26;20793;-82
2024/04/10 08:33:51;;;;;;;15.30;2.63;;;11.40;99.90;;;;;;5416260;26;20394;-82
2024/04/10 08:36:20;;;;;;;10.98;2.85;;;11.40;99.90;;;;;;5446423;26;20038;-82
2024/04/10 08:38:47;;;;;;;13.65;3.53;;;11.40;99.90;;;;;;5449078;26;20027;-81
2024/04/10 08:41:18;;;;;;;13.25;3.33;;;11.30;99.90;;;;;;5446854;26;20334;-82
2024/04/10 08:43:47;;;;;;;11.48;3.08;;;11.20;99.90;;;;;;5421247;26;20018;-82
2024/04/10 08:46:16;;;;;;;10.98;3.03;;;11.10;99.90;;;;;;5411398;26;20027;-82
2024/04/10 08:48:44;;;;;;;10.73;2.80;;;11.10;99.90;;;;;;5410523;26;20038;-80
2024/04/10 08:51:13;;;;;;;14.32;3.13;;;11.10;99.90;;;;;;5410489;26;20029;-81
2024/04/10 08:53:42;;;;;;;10.27;3.20;;;11.10;99.90;;;;;;5445298;26;20021;-82
2024/04/10 08:56:12;;;;;;;14.73;3.75;;;11.10;99.90;;;;;;5443808;26;19998;-83
2024/04/10 08:58:43;;;;;;;13.95;3.13;;;11.10;99.90;;;;;;5446613;26;20030;-81
2024/04/10 09:01:10;;;;;;;13.98;4.10;;;11.10;99.90;;;;;;5415153;26;19999;-82
2024/04/10 09:03:37;;;;;;;12.02;3.20;;;11.10;99.90;;;;;;5443215;26;20002;-81
2024/04/10 09:06:08;;;;;;;11.25;3.03;;;11.10;99.90;;;;;;5439234;26;20007;-83
2024/04/10 09:08:37;;;;;;;11.10;2.75;;;11.10;99.90;;;;;;5442801;26;19995;-81
2024/04/10 09:11:04;;;;;;;15.30;4.72;;;11.10;99.90;;;;;;5442268;26;20017;-82
2024/04/10 09:13:31;;;;;;;12.75;3.10;;;11.20;99.90;;;;;;5427262;26;20372;-82
2024/04/10 09:15:59;;;;;;;11.77;3.30;;;11.30;99.90;;;;;;5419074;26;20461;-82
2024/04/10 09:18:27;;;;;;;10.85;3.25;;;11.40;99.90;;;;;;5438684;26;20012;-82
2024/04/10 09:21:08;;;;;;;11.98;3.00;;;11.40;99.90;;;;;;5446589;26;20022;-81
2024/04/10 09:23:36;;;;;;;11.85;3.53;;;11.40;99.90;;;;;;5432299;26;20860;-82
2024/04/10 09:26:04;;;;;;;15.55;3.63;;;11.40;99.90;;;;;;5444691;26;20009;-83
2024/04/10 09:28:34;;;;;;;14.65;3.05;;;11.50;99.90;;;;;;5446007;26;19999;-82
2024/04/10 09:31:01;;;;;;;9.50;2.85;;;11.50;99.90;;;;;;5438411;26;19999;-81
2024/04/10 09:33:33;;;;;;;11.02;3.10;;;11.70;99.90;;;;;;5415396;26;20633;-82
2024/04/10 09:36:03;;;;;;;10.02;2.65;;;11.90;99.90;;;;;;5466956;26;20463;-82
2024/04/10 09:38:33;;;;;;;12.77;2.65;;;12.20;99.90;;;;;;5445229;26;20013;-83
2024/04/10 09:41:02;;;;;;;14.32;2.55;;;12.30;99.90;;;;;;5422756;26;20014;-83
2024/04/10 09:43:31;;;;;;;14.65;3.45;;;12.40;99.90;;;;;;5435986;26;19995;-82
2024/04/10 09:46:01;;;;;;;9.85;2.10;;;12.40;99.90;;;;;;5444101;26;19999;-83
2024/04/10 09:48:32;;;;;;;10.98;3.03;;;12.50;99.90;;;;;;5443966;26;20931;-82
2024/04/10 09:51:04;;;;;;;16.20;2.67;;;12.50;99.90;;;;;;5429544;26;20018;-81
2024/04/10 09:53:34;;;;;;;12.23;2.50;;;12.60;99.90;;;;;;5413237;26;20022;-82
2024/04/10 09:56:06;;;;;;;9.82;2.70;;;12.70;99.90;;;;;;5422509;26;20004;-82
2024/04/10 09:58:39;;;;;;;12.60;3.05;;;12.70;99.90;;;;;;5430801;26;20460;-82
2024/04/10 10:01:09;;;;;;;12.20;3.00;;;12.70;99.90;;;;;;5426634;26;20452;-85
2024/04/10 10:03:35;;;;;;;12.07;3.40;;;12.80;99.90;;;;;;5411989;26;20004;-82
2024/04/10 10:06:03;;;;;;;11.55;2.90;;;12.70;99.90;;;;;;5427722;26;20007;-82
2024/04/10 10:08:31;;;;;;;14.02;2.78;;;12.70;99.90;;;;;;5427413;26;20007;-82
2024/04/10 10:10:58;;;;;;;10.85;3.10;;;12.60;99.90;;;;;;5420788;26;20013;-81
2024/04/10 10:13:27;;;;;;;10.52;2.35;;;12.60;99.90;;;;;;5423990;26;20020;-81
2024/04/10 10:15:58;;;;;;;14.18;2.83;;;12.60;99.90;;;;;;5433590;26;19999;-82
2024/04/10 10:18:27;;;;;;;11.88;2.90;;;12.60;99.90;;;;;;5447566;26;20523;-83
2024/04/10 10:21:08;;;;;;;11.93;2.78;;;12.60;99.90;;;;;;5445322;26;20009;-83
2024/04/10 10:23:36;;;;;;;11.30;2.67;;;12.80;99.90;;;;;;5410551;26;20005;-83
2024/04/10 10:26:04;;;;;;;11.85;3.40;;;12.90;99.90;;;;;;5410766;26;20006;-82
2024/04/10 10:28:31;;;;;;;12.07;2.80;;;12.90;99.90;;;;;;5419051;26;20003;-84
2024/04/10 10:31:14;;;;;;;14.98;2.92;;;12.90;99.90;;;;;;5422263;26;20013;-83
2024/04/10 10:33:42;;;;;;;10.32;2.17;;;13.00;99.90;;;;;;5437851;26;19995;-83
2024/04/10 10:36:09;;;;;;;11.38;2.90;;;13.00;99.90;;;;;;5416127;26;20003;-82
2024/04/10 10:38:36;;;;;;;10.30;2.20;;;12.90;99.90;;;;;;5424829;26;20013;-83
2024/04/10 10:41:10;;;;;;;12.02;2.35;;;12.90;99.90;;;;;;5428266;26;20003;-83
2024/04/10 10:43:39;;;;;;;9.07;2.30;;;12.80;99.90;;;;;;5443379;26;20031;-81
2024/04/10 10:46:08;;;;;;;10.63;1.95;;;12.80;99.90;;;;;;5440369;26;20013;-82
2024/04/10 10:48:36;;;;;;;7.90;1.90;;;12.80;99.90;;;;;;5412771;26;20039;-83
2024/04/10 10:51:03;;;;;;;8.43;1.60;;;12.80;99.90;;;;;;5421612;26;20035;-83
2024/04/10 10:53:31;;;;;;;11.35;2.58;;;12.90;99.90;;;;;;5430802;26;20003;-83
2024/04/10 10:55:58;;;;;;;9.50;2.25;;;13.00;99.90;;;;;;5446786;26;19998;-82
2024/04/10 10:58:25;;;;;;;12.00;2.38;;;13.10;99.90;;;;;;5429470;26;20028;-83
2024/04/10 11:00:56;;;;;;;8.52;2.03;;;13.20;99.90;;;;;;5444944;26;19999;-83
2024/04/10 11:03:25;;;;;;;9.05;1.95;;;13.40;99.90;;;;;;5439018;26;20078;-82
2024/04/10 11:05:52;;;;;;;8.85;2.33;;;13.60;99.90;;;;;;5408866;26;20026;-82
2024/04/10 11:08:25;;;;;;;7.53;1.90;;;13.80;99.90;;;;;;5425523;26;20350;-84
2024/04/10 11:10:53;;;;;;;10.05;2.55;;;14.10;99.90;;;;;;5419647;26;20022;-83
2024/04/10 11:13:20;;;;;;;10.25;2.03;;;14.30;99.90;;;;;;5427196;26;19998;-83
2024/04/10 11:15:48;;;;;;;12.95;2.65;;;14.30;99.90;;;;;;5447459;26;19999;-83
2024/04/10 11:18:17;;;;;;;13.75;2.60;;;14.20;99.90;;;;;;5434482;26;20024;-82
2024/04/10 11:20:49;;;;;;;11.85;2.92;;;14.00;99.90;;;;;;5442734;26;20035;-82
2024/04/10 11:23:16;;;;;;;8.57;2.20;;;13.90;99.90;;;;;;5436262;26;20030;-83
2024/04/10 11:25:44;;;;;;;8.07;1.83;;;14.00;99.90;;;;;;5433734;26;20010;-82
2024/04/10 11:28:12;;;;;;;8.50;2.10;;;14.10;99.90;;;;;;5417399;26;20014;-81
2024/04/10 11:30:39;;;;;;;7.95;1.60;;;14.20;99.90;;;;;;5411562;26;20372;-81
2024/04/10 11:33:07;;;;;;;9.10;2.50;;;14.20;99.90;;;;;;5422769;26;20022;-82
2024/04/10 11:35:38;;;;;;;9.60;1.85;;;14.20;99.90;;;;;;5427775;26;20009;-83
2024/04/10 11:38:06;;;;;;;12.05;1.80;;;14.10;99.90;;;;;;5428496;26;20017;-80
2024/04/10 11:40:33;;;;;;;7.05;1.77;;;14.10;99.90;;;;;;5411721;26;20009;-82
2024/04/10 11:43:01;;;;;;;9.68;2.17;;;14.10;99.90;;;;;;5413584;26;20034;-82
2024/04/10 11:45:28;;;;;;;6.47;1.50;;;14.30;99.90;;;;;;5437667;26;20027;-82
2024/04/10 11:47:55;;;;;;;11.15;2.47;;;14.60;99.90;;;;;;5414413;26;20039;-85
2024/04/10 11:50:25;;;;;;;6.65;1.58;;;15.00;99.90;;;;;;5417436;26;20382;-81
2024/04/10 11:52:52;;;;;;;8.05;2.03;;;15.30;99.90;;;;;;5440976;26;20035;-82
2024/04/10 11:55:19;;;;;;;5.82;1.70;;;15.50;99.90;;;;;;5442422;26;20010;-82
2024/04/10 11:57:45;;;;;;;7.70;1.95;;;15.60;99.90;;;;;;5405042;26;20003;-82
2024/04/10 12:00:14;;;;;;;6.60;2.00;;;15.50;99.90;;;;;;5411199;26;19999;-82
2024/04/10 12:02:43;;;;;;;11.50;2.50;;;15.50;99.90;;;;;;5430414;26;20457;-81
2024/04/10 12:05:10;;;;;;;9.15;2.15;;;15.20;99.90;;;;;;5439030;26;20749;-81
2024/04/10 12:07:38;;;;;;;11.77;2.08;;;14.90;99.90;;;;;;5435521;26;19999;-81
2024/04/10 12:10:05;;;;;;;13.15;2.35;;;14.70;99.90;;;;;;5418458;26;20582;-81
2024/04/10 12:12:33;;;;;;;5.78;1.83;;;14.60;99.90;;;;;;5408025;26;20006;-81
2024/04/10 12:15:00;;;;;;;10.43;2.40;;;14.50;99.90;;;;;;5430359;26;20461;-81
2024/04/10 12:17:29;;;;;;;7.60;1.88;;;14.40;99.90;;;;;;5433732;26;20457;-83
2024/04/10 12:19:56;;;;;;;11.10;2.55;;;14.40;99.90;;;;;;5415441;26;20000;-82
2024/04/10 12:22:24;;;;;;;9.07;1.90;;;14.50;99.90;;;;;;5408754;26;19996;-81
2024/04/10 12:24:52;;;;;;;8.68;1.98;;;14.60;99.90;;;;;;5441190;26;20440;-82
2024/04/10 12:27:18;;;;;;;7.80;1.92;;;14.80;99.90;;;;;;5411375;26;19999;-82
2024/04/10 12:29:45;;;;;;;6.82;1.80;;;15.00;99.90;;;;;;5414658;26;20031;-83
2024/04/10 12:32:14;;;;;;;10.93;2.00;;;15.20;99.90;;;;;;5424977;26;20832;-81
2024/04/10 12:34:42;;;;;;;6.28;2.25;;;15.30;99.90;;;;;;5445366;26;20003;-81
2024/04/10 12:39:55;;;;;;;6.22;1.80;;;15.30;99.90;;;;;;5439946;26;20472;-81
2024/04/10 12:42:24;;;;;;;8.18;1.80;;;15.40;99.90;;;;;;5439138;26;20003;-81
2024/04/10 12:44:51;;;;;;;6.88;1.60;;;15.60;99.90;;;;;;5436145;26;20009;-81
2024/04/10 12:47:18;;;;;;;11.38;2.28;;;15.80;99.90;;;;;;5407213;26;20825;-79
2024/04/10 12:49:45;;;;;;;10.10;1.80;;;15.70;99.90;;;;;;5436138;26;20007;-81
2024/04/10 12:52:13;;;;;;;6.57;1.48;;;15.70;99.90;;;;;;5405798;26;20000;-81
2024/04/10 12:54:40;;;;;;;8.93;1.88;;;15.60;99.90;;;;;;5408450;26;20490;-80
2024/04/10 12:57:08;;;;;;;9.95;1.92;;;15.60;99.90;;;;;;5413515;26;19999;-81
2024/04/10 12:59:35;;;;;;;8.40;2.05;;;15.80;99.90;;;;;;5406334;26;19996;-82